Terminal Aerodrome Forecast
Issued by NWS

Home | Current Version | Previous Version | Text Only | Print | Product List | Glossary On
Versions: 1 2 3 4 5 6 7 8 9 10 11 12 13 14 15 16 17 18 19 20
000
FTUS43 KABR 061730
TAFATY
TAF
KATY 061730Z 0618/0718 10009G18KT 5SM -RA BR SCT013 BKN024 OVC090
     FM062200 15015G25KT P6SM BKN025
     FM070500 16011G18KT 4SM -SHRA OVC025
     FM071100 19008KT 3SM BR OVC010
     FM071500 23009KT P6SM OVC015=

USA.gov is the U.S. government's official web portal to all federal, state and local government web resources and services.